Time;durP1;ratioP1;P1;durP2;ratioP2;P2;SDS_P1;SDS_P2;PMS_P1;PMS_P2;Temp;Humidity;BMP_temperature;BMP_pressure;BME280_temperature;BME280_humidity;BME280_pressure;Samples;Min_cycle;Max_cycle;Signal;HPM_P1;HPM_P2
2024/01/18 00:01:02;;;;;;;4.07;3.50;;;15.30;50.10;;;;;;5052848;28;20576;-63
2024/01/18 00:03:28;;;;;;;4.25;3.63;;;15.30;50.20;;;;;;5035177;28;20175;-63
2024/01/18 00:05:54;;;;;;;3.55;3.25;;;15.20;50.20;;;;;;5052400;28;20178;-63
2024/01/18 00:08:19;;;;;;;3.67;3.30;;;15.20;50.10;;;;;;5052602;28;20175;-63
2024/01/18 00:10:45;;;;;;;3.85;3.53;;;15.20;50.10;;;;;;5052874;28;20174;-64
2024/01/18 00:13:11;;;;;;;3.85;3.20;;;15.20;50.10;;;;;;5052170;28;20179;-63
2024/01/18 00:15:37;;;;;;;3.55;3.25;;;15.20;50.20;;;;;;5052607;28;20264;-64
2024/01/18 00:18:04;;;;;;;4.60;3.65;;;15.20;50.30;;;;;;5052917;28;20262;-63
2024/01/18 00:20:30;;;;;;;4.57;3.63;;;15.10;50.20;;;;;;5051899;28;20175;-63
2024/01/18 00:22:55;;;;;;;4.15;3.47;;;15.10;50.20;;;;;;5052772;28;20198;-63
2024/01/18 00:25:21;;;;;;;4.57;3.83;;;15.10;50.20;;;;;;5052627;28;20178;-63
2024/01/18 00:27:47;;;;;;;4.00;3.65;;;15.10;50.20;;;;;;5052154;28;20175;-64
2024/01/18 00:30:13;;;;;;;4.43;3.85;;;15.00;50.20;;;;;;5052712;28;20167;-62
2024/01/18 00:32:39;;;;;;;3.90;3.50;;;15.00;50.20;;;;;;5052394;28;20179;-63
2024/01/18 00:35:04;;;;;;;3.92;3.63;;;15.00;50.20;;;;;;5051667;28;20298;-63
2024/01/18 00:37:30;;;;;;;4.05;3.65;;;15.00;50.20;;;;;;5052148;28;20175;-63
2024/01/18 00:39:55;;;;;;;3.97;3.47;;;15.00;50.20;;;;;;5052467;28;20225;-63
2024/01/18 00:42:21;;;;;;;3.30;3.00;;;15.00;50.20;;;;;;5051560;28;20171;-63
2024/01/18 00:44:46;;;;;;;4.07;3.72;;;15.00;50.30;;;;;;5052577;28;20228;-64
2024/01/18 00:47:12;;;;;;;4.80;3.50;;;14.90;50.20;;;;;;5052481;28;20167;-64
2024/01/18 00:49:38;;;;;;;4.32;3.78;;;15.00;50.20;;;;;;5051162;28;20175;-63
2024/01/18 00:52:04;;;;;;;3.75;3.45;;;14.90;50.20;;;;;;5051954;28;20222;-63
2024/01/18 00:54:29;;;;;;;4.72;3.60;;;14.90;50.20;;;;;;5051870;28;20562;-63
2024/01/18 00:56:55;;;;;;;4.18;3.78;;;14.90;50.20;;;;;;5051668;28;20178;-63
2024/01/18 00:59:20;;;;;;;4.25;3.63;;;14.80;50.20;;;;;;5052072;28;20653;-63
2024/01/18 01:01:46;;;;;;;4.03;3.63;;;14.80;50.20;;;;;;5051471;28;20167;-63
2024/01/18 01:04:11;;;;;;;3.88;3.55;;;14.80;50.20;;;;;;5052081;28;20175;-63
2024/01/18 01:06:37;;;;;;;3.40;3.10;;;14.80;50.20;;;;;;5051677;28;20208;-63
2024/01/18 01:09:03;;;;;;;4.03;3.63;;;14.80;50.30;;;;;;5051626;28;20178;-63
2024/01/18 01:11:29;;;;;;;5.47;3.25;;;14.80;50.30;;;;;;5051827;28;20261;-63
2024/01/18 01:13:57;;;;;;;4.28;3.65;;;14.80;50.20;;;;;;5051302;28;20297;-63
2024/01/18 01:16:24;;;;;;;4.18;3.78;;;14.70;50.30;;;;;;5051082;28;20227;-63
2024/01/18 01:18:49;;;;;;;4.70;3.60;;;14.70;50.20;;;;;;5051946;28;20190;-63
2024/01/18 01:21:15;;;;;;;5.05;3.63;;;14.70;50.30;;;;;;5051761;28;20214;-63
2024/01/18 01:23:44;;;;;;;4.93;3.92;;;14.70;50.30;;;;;;5051389;28;20175;-63
2024/01/18 01:26:09;;;;;;;5.00;3.97;;;14.70;50.30;;;;;;5051947;28;20202;-62
2024/01/18 01:28:38;;;;;;;3.95;3.65;;;14.70;50.30;;;;;;5051672;28;20202;-62
2024/01/18 01:31:03;;;;;;;4.85;4.05;;;14.70;50.30;;;;;;5051228;28;20194;-63
2024/01/18 01:33:29;;;;;;;4.03;3.63;;;14.70;50.30;;;;;;5051431;28;20202;-63
2024/01/18 01:35:54;;;;;;;3.47;3.17;;;14.70;50.20;;;;;;5051754;28;20874;-63
2024/01/18 01:38:20;;;;;;;4.10;3.70;;;14.60;50.30;;;;;;5051001;28;20601;-63
2024/01/18 01:40:48;;;;;;;3.85;3.33;;;14.70;50.30;;;;;;5051686;28;20537;-64
2024/01/18 01:43:15;;;;;;;4.28;3.42;;;14.60;50.30;;;;;;5051738;28;20163;-64
2024/01/18 01:45:41;;;;;;;3.70;3.40;;;14.60;50.30;;;;;;5051021;28;20205;-64
2024/01/18 01:48:07;;;;;;;4.07;3.63;;;14.60;50.30;;;;;;5051605;28;20664;-63
2024/01/18 01:50:32;;;;;;;3.85;3.50;;;14.60;50.30;;;;;;5051181;28;20175;-63
2024/01/18 01:52:58;;;;;;;4.28;3.30;;;14.60;50.30;;;;;;5050820;28;20308;-63
2024/01/18 01:55:23;;;;;;;3.63;3.28;;;14.60;50.30;;;;;;5051347;28;20234;-64
2024/01/18 01:57:49;;;;;;;4.10;3.65;;;14.60;50.30;;;;;;5051722;28;20702;-63
2024/01/18 02:00:15;;;;;;;3.88;3.38;;;14.60;50.30;;;;;;5050626;28;20640;-63
2024/01/18 02:02:40;;;;;;;4.07;3.35;;;14.50;50.30;;;;;;5033738;28;20224;-63
2024/01/18 02:05:06;;;;;;;3.58;3.28;;;14.60;50.40;;;;;;5050764;28;20630;-63
2024/01/18 02:07:31;;;;;;;4.15;3.58;;;14.50;50.30;;;;;;5033408;28;20194;-64
2024/01/18 02:09:57;;;;;;;4.82;3.75;;;14.50;50.30;;;;;;5050220;28;20171;-64
2024/01/18 02:12:26;;;;;;;3.85;3.55;;;14.50;50.30;;;;;;5049252;28;20183;-64
2024/01/18 02:14:51;;;;;;;4.68;3.80;;;14.50;50.30;;;;;;5051435;28;20233;-63
2024/01/18 02:17:17;;;;;;;4.20;3.80;;;14.50;50.30;;;;;;5051077;28;20630;-64
2024/01/18 02:19:42;;;;;;;3.60;3.30;;;14.50;50.30;;;;;;5050630;28;20194;-64
2024/01/18 02:22:08;;;;;;;4.57;3.40;;;14.40;50.30;;;;;;5051576;28;20179;-63
2024/01/18 02:24:40;;;;;;;3.67;3.38;;;14.40;50.30;;;;;;5035523;28;20544;-62
2024/01/18 02:27:05;;;;;;;3.17;2.88;;;14.40;50.30;;;;;;5037134;28;20175;-63
2024/01/18 02:29:32;;;;;;;4.38;3.70;;;14.40;50.30;;;;;;5054579;28;20179;-63
2024/01/18 02:31:57;;;;;;;3.83;3.20;;;14.40;50.30;;;;;;5054791;28;20254;-63
2024/01/18 02:34:23;;;;;;;3.67;3.38;;;14.40;50.30;;;;;;5054019;28;20305;-63
2024/01/18 02:36:48;;;;;;;3.75;3.42;;;14.40;50.30;;;;;;5037012;28;20586;-63
2024/01/18 02:39:14;;;;;;;4.82;3.67;;;14.40;50.30;;;;;;5053575;28;20171;-63
2024/01/18 02:41:41;;;;;;;3.92;3.53;;;14.40;50.40;;;;;;5052587;28;20171;-63
2024/01/18 02:44:07;;;;;;;4.15;3.10;;;14.40;50.40;;;;;;5054823;28;20210;-64
2024/01/18 02:46:32;;;;;;;4.07;3.10;;;14.40;50.40;;;;;;5054282;28;20656;-64
2024/01/18 02:48:58;;;;;;;3.05;2.75;;;14.30;50.40;;;;;;5053767;28;20226;-64
2024/01/18 02:51:27;;;;;;;3.25;2.85;;;14.30;50.40;;;;;;5054112;28;20226;-64
2024/01/18 02:53:52;;;;;;;3.78;3.00;;;14.30;50.40;;;;;;5054294;28;20230;-64
2024/01/18 02:56:19;;;;;;;3.03;2.72;;;14.40;50.40;;;;;;5053584;28;20217;-63
2024/01/18 02:58:44;;;;;;;3.42;3.08;;;14.30;50.40;;;;;;5054623;28;20262;-68
2024/01/18 03:01:10;;;;;;;3.33;3.03;;;14.30;50.40;;;;;;5053841;28;20270;-64
2024/01/18 03:03:36;;;;;;;4.45;3.35;;;14.30;50.50;;;;;;5053630;28;20266;-63
2024/01/18 03:06:02;;;;;;;3.75;3.33;;;14.30;50.40;;;;;;5054424;28;20652;-64
2024/01/18 03:08:27;;;;;;;2.88;2.67;;;14.30;50.50;;;;;;5052202;28;20621;-64
2024/01/18 03:10:53;;;;;;;3.05;2.83;;;14.30;50.60;;;;;;5054289;28;20543;-64
2024/01/18 03:13:18;;;;;;;2.88;2.67;;;14.30;50.50;;;;;;5053871;28;20179;-64
2024/01/18 03:15:44;;;;;;;3.33;2.75;;;14.20;50.50;;;;;;5053339;28;20211;-63
2024/01/18 03:18:09;;;;;;;3.10;2.90;;;14.20;51.20;;;;;;5054244;28;20199;-63
2024/01/18 03:20:35;;;;;;;3.28;2.97;;;14.20;50.50;;;;;;5053915;28;20564;-63
2024/01/18 03:23:01;;;;;;;3.33;3.00;;;14.20;50.50;;;;;;5053392;28;20170;-63
2024/01/18 03:25:26;;;;;;;3.03;2.72;;;14.20;50.50;;;;;;5053742;28;20642;-63
2024/01/18 03:27:52;;;;;;;4.07;3.13;;;14.20;50.50;;;;;;5053886;28;20198;-63
2024/01/18 03:30:17;;;;;;;3.03;2.50;;;14.20;50.50;;;;;;5052771;28;20550;-63
2024/01/18 03:32:43;;;;;;;2.90;2.70;;;14.20;50.60;;;;;;5053687;28;20938;-63
2024/01/18 03:35:08;;;;;;;2.80;2.60;;;14.20;50.50;;;;;;5053037;28;20225;-63
2024/01/18 03:37:34;;;;;;;2.58;2.38;;;14.20;50.60;;;;;;5052833;28;20179;-64
2024/01/18 03:40:02;;;;;;;4.32;2.63;;;14.20;50.70;;;;;;5053753;28;20183;-64
2024/01/18 03:42:30;;;;;;;2.47;2.28;;;14.10;50.60;;;;;;5053256;28;20168;-65
2024/01/18 03:44:56;;;;;;;2.65;2.45;;;14.10;50.50;;;;;;5052746;28;20206;-64
2024/01/18 03:47:21;;;;;;;2.55;2.35;;;14.10;50.60;;;;;;5053308;28;20198;-64
2024/01/18 03:49:47;;;;;;;3.50;2.60;;;14.10;50.70;;;;;;5053605;28;20199;-64
2024/01/18 03:52:12;;;;;;;2.83;2.25;;;14.10;50.70;;;;;;5052480;28;20248;-64
2024/01/18 03:54:39;;;;;;;2.65;2.42;;;14.10;50.70;;;;;;5053107;28;20246;-64
2024/01/18 03:57:05;;;;;;;2.50;2.30;;;14.10;50.70;;;;;;5053384;28;20175;-63
2024/01/18 03:59:30;;;;;;;2.40;2.20;;;14.10;50.60;;;;;;5052212;28;20175;-64
2024/01/18 04:01:56;;;;;;;2.67;2.28;;;14.10;50.70;;;;;;5053260;28;20171;-63
2024/01/18 04:04:22;;;;;;;3.03;2.58;;;14.10;50.80;;;;;;5053019;28;20194;-64
2024/01/18 04:06:49;;;;;;;3.20;2.80;;;14.00;50.60;;;;;;5052241;28;20175;-64
2024/01/18 04:09:14;;;;;;;3.38;2.28;;;14.00;50.70;;;;;;5053087;28;20179;-64
2024/01/18 04:11:43;;;;;;;2.60;2.20;;;14.00;50.70;;;;;;5052222;28;20526;-63
2024/01/18 04:14:09;;;;;;;2.72;2.53;;;14.00;50.70;;;;;;5035534;28;20258;-63
2024/01/18 04:16:34;;;;;;;2.67;2.20;;;14.00;51.30;;;;;;5052477;28;20727;-63
2024/01/18 04:19:00;;;;;;;3.05;2.40;;;14.00;50.70;;;;;;5052421;28;20305;-64
2024/01/18 04:21:25;;;;;;;2.60;2.28;;;14.00;50.70;;;;;;5052618;28;20533;-63
2024/01/18 04:23:51;;;;;;;2.90;2.58;;;14.00;50.70;;;;;;5052911;28;20175;-63
2024/01/18 04:26:16;;;;;;;2.17;1.98;;;14.00;50.70;;;;;;5051922;28;20175;-62
2024/01/18 04:28:42;;;;;;;3.22;2.22;;;14.00;50.70;;;;;;5052612;28;20533;-63
2024/01/18 04:31:08;;;;;;;3.00;2.33;;;14.00;50.70;;;;;;5052838;28;20181;-63
2024/01/18 04:33:33;;;;;;;2.35;2.20;;;14.00;50.70;;;;;;5051725;28;20240;-63
2024/01/18 04:35:59;;;;;;;2.30;2.00;;;13.90;50.70;;;;;;5052654;28;20543;-63
2024/01/18 04:38:24;;;;;;;2.10;1.90;;;13.90;50.70;;;;;;5052148;28;20691;-63
2024/01/18 04:40:50;;;;;;;2.22;2.03;;;14.00;50.70;;;;;;5051918;28;20197;-64
2024/01/18 04:43:16;;;;;;;1.88;1.77;;;13.90;50.70;;;;;;5052700;28;20179;-65
2024/01/18 04:45:42;;;;;;;3.22;1.95;;;13.90;50.70;;;;;;5052343;28;20686;-64
2024/01/18 04:48:07;;;;;;;1.80;1.70;;;13.90;50.70;;;;;;5051345;28;20220;-65
2024/01/18 04:50:33;;;;;;;2.10;1.90;;;13.90;50.80;;;;;;5050980;28;20225;-65
2024/01/18 04:53:00;;;;;;;2.30;1.90;;;13.90;50.90;;;;;;5052257;28;20317;-64
2024/01/18 04:55:26;;;;;;;1.90;1.77;;;13.90;50.90;;;;;;5051309;28;20210;-67
2024/01/18 04:57:51;;;;;;;3.00;2.05;;;13.90;50.90;;;;;;5052229;28;20175;-63
2024/01/18 05:00:17;;;;;;;2.55;1.70;;;13.90;50.80;;;;;;5052091;28;20297;-64
2024/01/18 05:02:44;;;;;;;1.95;1.73;;;14.00;50.90;;;;;;5050419;28;20258;-63
2024/01/18 05:05:10;;;;;;;2.60;1.98;;;14.00;50.80;;;;;;5052211;28;20191;-64
2024/01/18 05:07:40;;;;;;;1.98;1.75;;;14.00;50.80;;;;;;5051724;28;20197;-64
2024/01/18 05:10:08;;;;;;;2.55;1.95;;;13.90;50.80;;;;;;5051540;28;20179;-63
2024/01/18 05:12:34;;;;;;;1.80;1.60;;;13.90;50.70;;;;;;5051696;28;20190;-64
2024/01/18 05:15:00;;;;;;;1.77;1.60;;;13.90;50.70;;;;;;5051214;28;20606;-64
2024/01/18 05:17:35;;;;;;;1.95;1.75;;;13.90;50.70;;;;;;5051679;28;20182;-64
2024/01/18 05:20:04;;;;;;;1.90;1.80;;;13.90;50.80;;;;;;5052058;28;20525;-63
2024/01/18 05:22:30;;;;;;;1.65;1.55;;;13.90;50.90;;;;;;5050962;28;20186;-63
2024/01/18 05:24:56;;;;;;;1.67;1.58;;;13.90;50.80;;;;;;5051856;28;20258;-63
2024/01/18 05:27:22;;;;;;;2.05;1.70;;;13.80;51.50;;;;;;5050356;28;20715;-63
2024/01/18 05:29:48;;;;;;;3.45;1.90;;;13.80;50.80;;;;;;5051319;28;20183;-63
2024/01/18 05:32:13;;;;;;;1.73;1.60;;;13.90;50.90;;;;;;5051784;28;20653;-62
2024/01/18 05:34:40;;;;;;;1.65;1.52;;;13.90;50.80;;;;;;5051676;28;20221;-63
2024/01/18 05:37:06;;;;;;;1.88;1.67;;;13.90;50.80;;;;;;5051153;28;20179;-64
2024/01/18 05:39:31;;;;;;;1.83;1.65;;;13.90;50.70;;;;;;5051436;28;20185;-63
2024/01/18 05:41:57;;;;;;;2.30;1.70;;;13.90;50.70;;;;;;5051877;28;20177;-64
2024/01/18 05:44:22;;;;;;;1.95;1.42;;;13.90;50.70;;;;;;5050717;28;20193;-63
2024/01/18 05:46:51;;;;;;;2.53;1.63;;;13.90;50.70;;;;;;5051589;28;20587;-63
2024/01/18 05:49:22;;;;;;;1.40;1.27;;;13.90;50.70;;;;;;5051444;28;20175;-64
2024/01/18 05:51:47;;;;;;;1.40;1.30;;;13.90;50.70;;;;;;5050879;28;20268;-63
2024/01/18 05:54:13;;;;;;;1.75;1.60;;;13.90;50.60;;;;;;5051628;28;20206;-63
2024/01/18 05:56:39;;;;;;;1.50;1.40;;;14.00;50.40;;;;;;5051526;28;20183;-63
2024/01/18 05:59:04;;;;;;;1.95;1.55;;;14.10;50.40;;;;;;5052396;28;20254;-63
2024/01/18 06:01:31;;;;;;;1.42;1.33;;;14.20;50.50;;;;;;5055353;28;20175;-64
2024/01/18 06:03:57;;;;;;;2.05;1.60;;;14.40;50.40;;;;;;5055518;28;20179;-63
2024/01/18 06:06:22;;;;;;;1.50;1.40;;;14.60;50.20;;;;;;5054463;28;20537;-64
2024/01/18 06:08:48;;;;;;;1.70;1.60;;;14.70;49.90;;;;;;5055389;28;20206;-64
2024/01/18 06:11:14;;;;;;;1.67;1.40;;;14.80;49.70;;;;;;5054633;28;20266;-64
2024/01/18 06:13:40;;;;;;;1.40;1.30;;;15.00;49.60;;;;;;5055307;28;20186;-64
2024/01/18 06:16:11;;;;;;;1.70;1.50;;;15.10;49.40;;;;;;5055357;28;20190;-63
2024/01/18 06:18:37;;;;;;;2.30;1.40;;;15.40;49.10;;;;;;5054212;28;20182;-63
2024/01/18 06:21:04;;;;;;;1.63;1.52;;;15.60;48.70;;;;;;5055167;28;20533;-63
2024/01/18 06:23:29;;;;;;;1.55;1.45;;;15.60;48.50;;;;;;5055009;28;20171;-63
2024/01/18 06:25:55;;;;;;;2.88;1.85;;;15.60;48.50;;;;;;5054621;28;20163;-63
2024/01/18 06:28:21;;;;;;;1.65;1.55;;;15.80;48.40;;;;;;5054795;28;20577;-63
2024/01/18 06:30:46;;;;;;;2.13;1.45;;;15.80;48.30;;;;;;5055125;28;20182;-63
2024/01/18 06:33:12;;;;;;;1.65;1.55;;;15.80;48.30;;;;;;5054468;28;20175;-64
2024/01/18 06:35:37;;;;;;;1.75;1.40;;;15.90;48.20;;;;;;5054520;28;20297;-63
2024/01/18 06:38:03;;;;;;;1.83;1.67;;;15.80;48.20;;;;;;5054999;28;20281;-64
2024/01/18 06:40:29;;;;;;;1.65;1.55;;;15.80;48.40;;;;;;5053749;28;20187;-64
2024/01/18 06:42:54;;;;;;;2.40;2.03;;;15.80;48.30;;;;;;5054844;28;20178;-64
2024/01/18 06:45:20;;;;;;;1.40;1.30;;;15.80;48.40;;;;;;5054511;28;20265;-63
2024/01/18 06:47:45;;;;;;;1.65;1.55;;;15.80;48.50;;;;;;5053917;28;20254;-64
2024/01/18 06:50:13;;;;;;;2.20;1.60;;;15.70;48.50;;;;;;5054535;28;20187;-63
2024/01/18 06:52:38;;;;;;;1.95;1.70;;;15.80;48.60;;;;;;5054236;28;20227;-63
2024/01/18 06:55:05;;;;;;;1.83;1.50;;;15.80;48.60;;;;;;5054021;28;20584;-63
2024/01/18 06:57:31;;;;;;;1.48;1.20;;;16.10;48.40;;;;;;5054112;28;20175;-63
2024/01/18 06:59:57;;;;;;;1.50;1.40;;;16.10;48.10;;;;;;5054446;28;20181;-63
2024/01/18 07:02:22;;;;;;;1.83;1.42;;;16.20;48.00;;;;;;5053376;28;20171;-63
2024/01/18 07:04:48;;;;;;;2.05;1.50;;;16.40;47.90;;;;;;5054230;28;20170;-64
2024/01/18 07:07:13;;;;;;;1.30;1.20;;;16.30;47.80;;;;;;5054233;28;20645;-63
2024/01/18 07:09:39;;;;;;;2.28;1.30;;;16.30;47.70;;;;;;5052836;28;20194;-64
2024/01/18 07:12:05;;;;;;;1.45;1.35;;;16.40;47.80;;;;;;5053422;28;20175;-65
2024/01/18 07:14:30;;;;;;;1.55;1.45;;;16.40;47.70;;;;;;5053097;28;20242;-63
2024/01/18 07:16:56;;;;;;;1.60;1.40;;;16.40;47.70;;;;;;5054055;28;20176;-64
2024/01/18 07:19:21;;;;;;;1.52;1.30;;;16.40;47.80;;;;;;5053595;28;20764;-65
2024/01/18 07:21:47;;;;;;;1.50;1.40;;;16.40;47.70;;;;;;5053440;28;20182;-64
2024/01/18 07:24:12;;;;;;;1.70;1.60;;;16.50;47.70;;;;;;5054142;28;20206;-64
2024/01/18 07:26:39;;;;;;;1.55;1.45;;;16.50;47.60;;;;;;5053474;28;20548;-64
2024/01/18 07:29:04;;;;;;;1.40;1.25;;;16.40;47.60;;;;;;5053316;28;20232;-63
2024/01/18 07:31:30;;;;;;;1.75;1.60;;;16.30;47.80;;;;;;5053662;28;20202;-64
2024/01/18 07:33:58;;;;;;;2.20;1.38;;;16.20;47.80;;;;;;5053643;28;20692;-64
2024/01/18 07:36:24;;;;;;;1.40;1.30;;;16.10;48.10;;;;;;5052938;28;20179;-64
2024/01/18 07:38:49;;;;;;;1.27;1.17;;;16.10;48.10;;;;;;5053910;28;20539;-65
2024/01/18 07:41:15;;;;;;;1.85;1.40;;;16.20;48.10;;;;;;5053376;28;20656;-65
2024/01/18 07:43:40;;;;;;;2.45;1.50;;;16.30;48.20;;;;;;5052863;28;20167;-64
2024/01/18 07:46:06;;;;;;;3.13;1.80;;;16.50;48.00;;;;;;5053679;28;20653;-64
2024/01/18 07:48:32;;;;;;;2.45;1.45;;;16.40;47.80;;;;;;5053142;28;20568;-64
2024/01/18 07:50:57;;;;;;;2.20;1.50;;;16.50;47.70;;;;;;5052470;28;20630;-64
2024/01/18 07:53:23;;;;;;;3.13;2.08;;;16.60;47.70;;;;;;5052942;28;20722;-64
2024/01/18 07:55:49;;;;;;;1.50;1.40;;;16.60;47.60;;;;;;5053412;28;20218;-63
2024/01/18 07:58:14;;;;;;;1.63;1.50;;;16.50;47.60;;;;;;5052555;28;20198;-65
2024/01/18 08:00:40;;;;;;;1.60;1.50;;;16.60;47.70;;;;;;5053273;28;20187;-65
2024/01/18 08:03:06;;;;;;;2.08;1.50;;;16.60;47.80;;;;;;5053200;28;20179;-64
2024/01/18 08:05:32;;;;;;;4.22;1.80;;;16.70;48.10;;;;;;5052171;28;20185;-65
2024/01/18 08:07:57;;;;;;;2.78;1.52;;;16.70;48.20;;;;;;5053363;28;20194;-64
2024/01/18 08:10:23;;;;;;;3.88;2.22;;;16.70;48.00;;;;;;5052903;28;20175;-64
2024/01/18 08:12:49;;;;;;;4.10;1.92;;;16.70;48.10;;;;;;5052452;28;20190;-62
2024/01/18 08:15:14;;;;;;;3.50;2.35;;;16.80;48.10;;;;;;5052597;28;20215;-64
2024/01/18 08:17:42;;;;;;;2.78;1.80;;;16.80;48.40;;;;;;5052549;28;20207;-70
2024/01/18 08:20:12;;;;;;;3.33;1.95;;;16.90;48.30;;;;;;5051994;28;20179;-70
2024/01/18 08:22:41;;;;;;;4.63;2.08;;;16.90;48.30;;;;;;5052195;28;20179;-70
2024/01/18 08:25:07;;;;;;;3.00;2.10;;;17.00;48.20;;;;;;5052114;28;20175;-70
2024/01/18 08:27:33;;;;;;;4.82;2.33;;;17.10;48.10;;;;;;5052423;28;20197;-70
2024/01/18 08:29:58;;;;;;;4.18;2.20;;;17.10;48.00;;;;;;5052552;28;20277;-70
2024/01/18 08:32:31;;;;;;;3.10;1.92;;;17.10;48.10;;;;;;5051460;28;20179;-70
2024/01/18 08:35:00;;;;;;;2.90;2.03;;;17.10;48.10;;;;;;5052523;28;20215;-72
2024/01/18 08:37:26;;;;;;;4.43;2.38;;;17.10;48.00;;;;;;5052286;28;20163;-71
2024/01/18 08:39:52;;;;;;;2.15;1.50;;;17.10;48.20;;;;;;5051844;28;20546;-71
2024/01/18 08:42:17;;;;;;;2.88;1.85;;;17.10;48.20;;;;;;5052165;28;20638;-70
2024/01/18 08:44:45;;;;;;;2.25;1.92;;;17.10;48.20;;;;;;5052201;28;20216;-71
2024/01/18 08:47:11;;;;;;;2.72;1.75;;;17.10;48.30;;;;;;5051709;28;20640;-69
2024/01/18 08:49:37;;;;;;;2.10;1.90;;;17.10;48.20;;;;;;5052086;28;20198;-70
2024/01/18 08:52:03;;;;;;;2.65;2.08;;;17.20;48.00;;;;;;5052389;28;20227;-71
2024/01/18 08:54:28;;;;;;;2.05;1.77;;;17.20;48.00;;;;;;5051302;28;20218;-70
2024/01/18 08:56:54;;;;;;;2.42;1.67;;;17.30;48.10;;;;;;5052307;28;20175;-71
2024/01/18 08:59:20;;;;;;;2.15;1.90;;;17.30;48.10;;;;;;5051841;28;20171;-70
2024/01/18 09:01:47;;;;;;;2.67;1.83;;;17.40;48.00;;;;;;5051538;28;20258;-70
2024/01/18 09:04:12;;;;;;;2.30;1.65;;;17.50;48.10;;;;;;5034716;28;20661;-70
2024/01/18 09:06:38;;;;;;;2.20;1.98;;;17.50;47.90;;;;;;5051722;28;20179;-71
2024/01/18 09:09:04;;;;;;;2.17;1.65;;;17.60;47.80;;;;;;5051521;28;20175;-71
2024/01/18 09:11:30;;;;;;;3.08;1.85;;;17.60;47.70;;;;;;5051717;28;20711;-70
2024/01/18 09:13:55;;;;;;;1.52;1.38;;;17.70;47.80;;;;;;5052038;28;20171;-70
2024/01/18 09:16:21;;;;;;;1.85;1.50;;;17.80;47.90;;;;;;5050991;28;20199;-69
2024/01/18 09:18:50;;;;;;;2.20;1.65;;;17.80;47.80;;;;;;5052206;28;20179;-69
2024/01/18 09:21:16;;;;;;;1.70;1.42;;;17.90;47.80;;;;;;5051263;28;20195;-70
2024/01/18 09:23:41;;;;;;;2.03;1.50;;;17.90;47.60;;;;;;5052071;28;20199;-69
2024/01/18 09:26:07;;;;;;;2.67;1.60;;;17.80;47.80;;;;;;5052014;28;20581;-70
2024/01/18 09:28:32;;;;;;;3.58;1.80;;;17.70;47.90;;;;;;5050883;28;20668;-70
2024/01/18 09:30:58;;;;;;;1.35;1.27;;;17.60;48.10;;;;;;5051669;28;20183;-69
2024/01/18 09:33:23;;;;;;;3.08;1.50;;;17.60;48.40;;;;;;5052122;28;20172;-70
2024/01/18 09:35:49;;;;;;;2.55;1.85;;;17.50;48.50;;;;;;5054222;28;20548;-71
2024/01/18 09:38:14;;;;;;;2.30;1.50;;;17.40;48.70;;;;;;5055853;28;20258;-71
2024/01/18 09:40:40;;;;;;;2.30;1.50;;;17.30;48.80;;;;;;5055909;28;20182;-71
2024/01/18 09:43:07;;;;;;;2.00;1.50;;;17.20;48.90;;;;;;5037449;28;20163;-71
2024/01/18 09:45:32;;;;;;;2.20;1.83;;;17.20;49.00;;;;;;5055487;28;20186;-70
2024/01/18 09:47:58;;;;;;;2.17;1.63;;;17.10;49.10;;;;;;5054766;28;20212;-69
2024/01/18 09:50:23;;;;;;;1.88;1.50;;;17.10;49.30;;;;;;5054932;28;20214;-69
2024/01/18 09:52:49;;;;;;;1.42;1.30;;;17.00;49.40;;;;;;5054460;28;20313;-69
2024/01/18 09:55:15;;;;;;;1.80;1.40;;;17.00;49.50;;;;;;5054234;28;20289;-71
2024/01/18 09:57:41;;;;;;;1.90;1.80;;;16.90;49.60;;;;;;5054933;28;20171;-69
2024/01/18 10:00:08;;;;;;;1.90;1.35;;;16.90;49.70;;;;;;5037879;28;20662;-70
2024/01/18 10:02:33;;;;;;;2.90;1.77;;;16.90;49.80;;;;;;5037740;28;20182;-70
2024/01/18 10:05:00;;;;;;;1.40;1.30;;;16.90;49.90;;;;;;5055040;28;20526;-71
2024/01/18 10:07:27;;;;;;;2.72;1.50;;;16.80;49.90;;;;;;5054099;28;20178;-70
2024/01/18 10:09:53;;;;;;;1.45;1.35;;;16.70;49.90;;;;;;5055327;28;20571;-70
2024/01/18 10:12:18;;;;;;;2.30;1.60;;;16.70;50.00;;;;;;5054392;28;20172;-70
2024/01/18 10:14:45;;;;;;;1.83;1.52;;;16.60;50.00;;;;;;5055095;28;20211;-70
2024/01/18 10:17:20;;;;;;;2.22;1.50;;;16.60;50.10;;;;;;5055514;28;20195;-71
2024/01/18 10:19:48;;;;;;;1.30;1.20;;;16.60;50.20;;;;;;5055219;28;20308;-70
2024/01/18 10:22:13;;;;;;;1.45;1.25;;;16.60;50.20;;;;;;5037734;28;20171;-69
2024/01/18 10:24:40;;;;;;;2.13;1.30;;;16.60;50.20;;;;;;5052958;28;20210;-70
2024/01/18 10:27:07;;;;;;;1.75;1.35;;;16.60;50.20;;;;;;5055049;28;20254;-70
2024/01/18 10:29:35;;;;;;;1.73;1.25;;;16.60;50.20;;;;;;5054934;28;20187;-70
2024/01/18 10:32:02;;;;;;;1.83;1.30;;;16.60;50.20;;;;;;5054439;28;20176;-70
2024/01/18 10:34:28;;;;;;;1.05;0.98;;;16.50;50.10;;;;;;5054727;28;20214;-71
2024/01/18 10:36:54;;;;;;;1.10;1.00;;;16.50;50.10;;;;;;5054972;28;20175;-71
2024/01/18 10:39:20;;;;;;;1.27;1.17;;;16.50;50.20;;;;;;5053804;28;20657;-72
2024/01/18 10:41:45;;;;;;;1.13;1.00;;;16.50;50.20;;;;;;5054665;28;20401;-71
2024/01/18 10:44:14;;;;;;;2.08;1.23;;;16.40;50.20;;;;;;5053540;28;20634;-70
2024/01/18 10:46:40;;;;;;;1.67;1.42;;;16.40;50.50;;;;;;5054010;28;20240;-70
2024/01/18 10:49:06;;;;;;;1.20;1.10;;;16.40;50.60;;;;;;5054812;28;20270;-71
2024/01/18 10:51:31;;;;;;;1.17;1.08;;;16.40;50.60;;;;;;5053069;28;20242;-70
2024/01/18 10:53:57;;;;;;;1.20;1.10;;;16.40;50.60;;;;;;5053591;28;20284;-70
2024/01/18 10:56:23;;;;;;;1.38;1.10;;;16.40;50.50;;;;;;5052892;28;20175;-71
2024/01/18 10:58:49;;;;;;;1.17;1.08;;;16.40;50.40;;;;;;5054646;28;20175;-71
2024/01/18 11:01:15;;;;;;;1.20;1.10;;;16.40;50.30;;;;;;5052342;28;20816;-71
2024/01/18 11:03:41;;;;;;;1.90;0.90;;;16.40;50.30;;;;;;5054372;28;20178;-71
2024/01/18 11:06:09;;;;;;;1.20;1.10;;;16.40;50.20;;;;;;5036563;28;20179;-72
2024/01/18 11:08:36;;;;;;;1.08;1.00;;;16.50;50.20;;;;;;5051999;28;20179;-71
2024/01/18 11:11:01;;;;;;;1.33;1.15;;;16.50;50.20;;;;;;5036519;28;20656;-70
2024/01/18 11:13:27;;;;;;;1.05;0.88;;;16.50;50.10;;;;;;5052826;28;20181;-70
2024/01/18 11:15:53;;;;;;;1.83;1.20;;;16.60;50.10;;;;;;5035683;28;20223;-70
2024/01/18 11:18:18;;;;;;;0.98;0.85;;;16.60;50.00;;;;;;5053704;28;20184;-70
2024/01/18 11:21:06;;;;;;;1.38;1.23;;;16.50;50.00;;;;;;5053272;28;20171;-70
2024/01/18 11:23:36;;;;;;;0.95;0.85;;;16.50;50.00;;;;;;5053662;28;20194;-69
2024/01/18 11:26:04;;;;;;;1.60;1.30;;;16.40;50.10;;;;;;5053856;28;20194;-69
2024/01/18 11:28:30;;;;;;;1.10;1.00;;;16.40;50.10;;;;;;5052908;28;20179;-69
2024/01/18 11:30:55;;;;;;;1.40;1.00;;;16.40;50.30;;;;;;5053684;28;20290;-69
2024/01/18 11:33:21;;;;;;;1.30;1.00;;;16.40;50.20;;;;;;5052092;28;20245;-70
2024/01/18 11:35:50;;;;;;;1.20;0.82;;;16.40;50.30;;;;;;5052666;28;20206;-70
2024/01/18 11:38:32;;;;;;;1.60;1.38;;;16.30;50.10;;;;;;5053333;28;20509;-70
2024/01/18 11:41:04;;;;;;;2.00;1.00;;;16.50;50.00;;;;;;5053622;28;20194;-70
2024/01/18 11:44:00;;;;;;;1.13;1.00;;;16.50;50.00;;;;;;5051291;28;20665;-70
2024/01/18 11:46:32;;;;;;;1.13;1.02;;;16.60;50.00;;;;;;5053315;28;20183;-70
2024/01/18 11:48:58;;;;;;;1.30;1.10;;;16.60;49.90;;;;;;5052572;28;20225;-70
2024/01/18 11:51:23;;;;;;;1.30;1.10;;;16.60;49.90;;;;;;5035142;28;20219;-69
2024/01/18 11:53:49;;;;;;;1.80;1.10;;;16.70;49.90;;;;;;5052210;28;20187;-70
2024/01/18 11:56:14;;;;;;;3.85;1.25;;;16.70;49.80;;;;;;5050578;28;20198;-69
2024/01/18 11:58:40;;;;;;;1.10;1.00;;;16.70;49.70;;;;;;5051896;28;20538;-70
2024/01/18 12:01:06;;;;;;;1.55;1.08;;;16.70;49.70;;;;;;5052153;28;20175;-69
2024/01/18 12:03:32;;;;;;;1.35;1.10;;;16.70;49.70;;;;;;5052141;28;20184;-69
2024/01/18 12:06:00;;;;;;;1.30;1.20;;;16.60;49.60;;;;;;5053113;28;20175;-69
2024/01/18 12:08:25;;;;;;;2.08;1.25;;;16.60;49.80;;;;;;5051360;28;20167;-70
2024/01/18 12:10:51;;;;;;;1.00;1.00;;;16.60;49.90;;;;;;5034399;28;20260;-70
2024/01/18 12:13:17;;;;;;;1.48;1.00;;;16.60;50.00;;;;;;5051459;28;20167;-70
2024/01/18 12:15:44;;;;;;;1.45;1.00;;;16.70;50.10;;;;;;5035268;28;20246;-69
2024/01/18 12:18:09;;;;;;;1.42;0.93;;;16.70;50.10;;;;;;5051970;28;20549;-69
2024/01/18 12:20:35;;;;;;;1.15;1.05;;;16.70;50.00;;;;;;5052239;28;20186;-69
2024/01/18 12:23:01;;;;;;;1.25;0.90;;;16.60;49.90;;;;;;5052786;28;20176;-69
2024/01/18 12:25:28;;;;;;;2.67;1.60;;;16.60;49.90;;;;;;5051693;28;20661;-69
2024/01/18 12:27:54;;;;;;;1.30;0.68;;;16.50;49.90;;;;;;5052724;28;20184;-69
2024/01/18 12:30:19;;;;;;;1.55;1.10;;;16.50;50.00;;;;;;5051193;28;20602;-68
2024/01/18 12:32:45;;;;;;;0.95;0.93;;;16.40;50.10;;;;;;5052127;28;20728;-68
2024/01/18 12:35:10;;;;;;;1.38;1.00;;;16.40;50.00;;;;;;5051328;28;20218;-69
2024/01/18 12:37:38;;;;;;;1.17;0.77;;;16.50;50.00;;;;;;5034509;28;20620;-69
2024/01/18 12:40:04;;;;;;;1.00;0.90;;;16.50;49.80;;;;;;5051725;28;20266;-70
2024/01/18 12:42:32;;;;;;;1.30;1.05;;;16.50;49.90;;;;;;5051962;28;20686;-70